Miami, Florida
Traffic Map
Current Weather Conditions
Miami, Florida
Broken Clouds
Broken Clouds
63°
Feels Like: 63°
Wind Chill: 63° Ceiling: 6000
Heat Index: 63° Visibility: 10mi
Dew Point: 53° Wind: 8mph
Humidity: 70% Direction: 300° (WNW)
Pressure: 30.01in Gusts: 0mph
Raw Report DataKMIA 091053Z 30007KT 10SM SCT039 BKN060 BKN230 17/12 A3001 RMK AO2 SLP161 T01720117
Traffic Incident Summary
Active as of:
Severity:
Category:
InformationThere was an issue retrieving the traffic information for this location. Please try a different location or try again shortly.
Advertisements
Track Severe Weather on mobile